Terminal Aerodrome Forecast
Issued by NWS Jacksonville, FL

Home | Current Version | Previous Version | Text Only | Print | Product List | Glossary On
Versions: 1 2 3 4 5 6 7 8 9 10 11 12 13 14 15 16 17 18 19 20 21
000
FTUS42 KJAX 220300 AAA
TAFGNV
TAF AMD
KGNV 220303Z 2203/2224 VRB03KT 2SM SHRA BR OVC002
      TEMPO 2205/2209 1/2SM RA FG
     FM221400 VRB04KT 4SM -RA BR OVC004
     FM221800 18007KT P6SM VCSH OVC015=

USA.gov is the U.S. government's official web portal to all federal, state and local government web resources and services.